createdAt,value
2019-01-18T00:02:35.941Z,99429.49
2019-01-18T00:05:11.856Z,99446.45
2019-01-18T00:07:45.999Z,99449.84
2019-01-18T00:10:18.917Z,99463.11
2019-01-18T00:12:56.656Z,99469.92
2019-01-18T00:15:30.616Z,99467.97
2019-01-18T00:18:09.745Z,99461.47
2019-01-18T00:20:43.509Z,99468.13
2019-01-18T00:23:20.379Z,99458.52
2019-01-18T00:25:57.002Z,99465.50
2019-01-18T00:28:30.602Z,99473.30
2019-01-18T00:31:01.833Z,99470.66
2019-01-18T00:33:35.991Z,99484.31
2019-01-18T00:36:18.757Z,99483.70
2019-01-18T00:38:53.384Z,99488.64
2019-01-18T00:41:36.621Z,99483.95
2019-01-18T00:44:11.291Z,99478.44
2019-01-18T00:46:49.229Z,99478.44
2019-01-18T00:49:33.640Z,99480.93
2019-01-18T00:52:05.825Z,99482.50
2019-01-18T00:54:36.941Z,99481.17
2019-01-18T00:57:09.170Z,99495.82
2019-01-18T00:59:40.192Z,99484.92
2019-01-18T01:02:12.710Z,99501.54
2019-01-18T01:04:47.046Z,99498.45
2019-01-18T01:07:22.104Z,99501.76
2019-01-18T01:09:53.097Z,99515.25
2019-01-18T01:12:24.196Z,99517.11
2019-01-18T01:14:55.750Z,99521.81
2019-01-18T01:17:26.872Z,99530.49
2019-01-18T01:19:57.964Z,99534.37
2019-01-18T01:22:32.112Z,99529.54
2019-01-18T01:25:07.339Z,99530.52
2019-01-18T01:27:41.684Z,99545.58
2019-01-18T01:30:18.217Z,99550.44
2019-01-18T01:32:49.660Z,99555.11
2019-01-18T01:35:22.100Z,99559.27
2019-01-18T01:37:56.091Z,99549.73
2019-01-18T01:40:28.971Z,99549.73
2019-01-18T01:43:05.926Z,99562.22
2019-01-18T01:45:37.357Z,99567.47
2019-01-18T01:48:13.319Z,99569.20
2019-01-18T01:50:49.740Z,99578.53
2019-01-18T01:53:22.398Z,99568.96
2019-01-18T01:55:58.851Z,99568.39
2019-01-18T01:58:30.057Z,99576.53
2019-01-18T02:01:03.637Z,99578.95
2019-01-18T02:03:35.018Z,99592.53
2019-01-18T02:06:06.346Z,99597.63
2019-01-18T02:08:40.885Z,99588.66
2019-01-18T02:11:13.043Z,99594.61
2019-01-18T02:13:44.192Z,99583.77
2019-01-18T02:16:16.192Z,99594.69
2019-01-18T02:18:48.140Z,99602.02
2019-01-18T02:21:19.260Z,99594.07
2019-01-18T02:23:55.756Z,99598.88
2019-01-18T02:26:30.677Z,99611.84
2019-01-18T02:29:01.853Z,99616.00
2019-01-18T02:31:33.402Z,99610.56
2019-01-18T02:34:04.613Z,99606.83
2019-01-18T02:36:42.591Z,99623.14
2019-01-18T02:39:14.528Z,99631.95
2019-01-18T02:41:48.819Z,99632.83
2019-01-18T02:44:21.273Z,99629.30
2019-01-18T02:46:52.364Z,99632.27
2019-01-18T02:49:26.513Z,99637.13
2019-01-18T02:51:58.459Z,99640.97
2019-01-18T02:54:29.840Z,99638.56
2019-01-18T02:57:00.924Z,99637.48
2019-01-18T02:59:32.281Z,99633.53
2019-01-18T03:02:06.567Z,99641.38
2019-01-18T03:04:38.073Z,99634.27
2019-01-18T03:07:11.599Z,99642.10
2019-01-18T03:09:42.703Z,99639.94
2019-01-18T03:12:17.314Z,99650.58
2019-01-18T03:14:53.213Z,99652.31
2019-01-18T03:17:24.656Z,99654.44
2019-01-18T03:19:57.124Z,99657.66
2019-01-18T03:22:29.043Z,99657.91
2019-01-18T03:25:00.130Z,99675.05
2019-01-18T03:27:35.464Z,99678.16
2019-01-18T03:30:18.868Z,99702.34
2019-01-18T03:32:43.673Z,99699.86
2019-01-18T03:35:16.904Z,99711.73
2019-01-18T03:37:50.199Z,99718.42
2019-01-18T03:40:24.758Z,99716.78
2019-01-18T03:42:56.198Z,99724.09
2019-01-18T03:45:28.111Z,99725.63
2019-01-18T03:47:59.478Z,99730.17
2019-01-18T03:50:31.631Z,99727.20
2019-01-18T03:53:02.742Z,99714.16
2019-01-18T03:55:34.633Z,99716.27
2019-01-18T03:58:05.775Z,99724.77
2019-01-18T04:00:37.823Z,99729.97
2019-01-18T04:03:09.344Z,99737.08
2019-01-18T04:05:42.607Z,99737.98
2019-01-18T04:08:13.702Z,99736.70
2019-01-18T04:10:45.669Z,99756.19
2019-01-18T04:13:16.773Z,99765.53
2019-01-18T04:15:48.141Z,99764.03
2019-01-18T04:18:22.027Z,99771.02
2019-01-18T04:20:54.017Z,99769.95
2019-01-18T04:23:26.998Z,99770.11
2019-01-18T04:25:58.943Z,99775.55
2019-01-18T04:28:38.364Z,99788.52
2019-01-18T04:31:19.836Z,99786.27
2019-01-18T04:33:57.519Z,99788.24
2019-01-18T04:36:45.390Z,99794.84
2019-01-18T04:39:27.753Z,99802.09
2019-01-18T04:42:03.914Z,99806.12
2019-01-18T04:44:35.629Z,99820.13
2019-01-18T04:47:07.523Z,99825.36
2019-01-18T04:49:41.798Z,99826.00
2019-01-18T04:52:18.680Z,99826.00
2019-01-18T04:54:50.658Z,99839.69
2019-01-18T04:57:24.584Z,99849.03
2019-01-18T04:59:55.682Z,99851.13
2019-01-18T05:02:26.830Z,99855.75
2019-01-18T05:05:01.183Z,99857.33
2019-01-18T05:07:34.895Z,99862.90
2019-01-18T05:10:06.878Z,99854.36
2019-01-18T05:12:41.824Z,99856.76
2019-01-18T05:15:18.648Z,99853.96
2019-01-18T05:17:50.540Z,99848.47
2019-01-18T05:20:21.651Z,99846.20
2019-01-18T05:22:54.042Z,99854.39
2019-01-18T05:25:25.112Z,99847.80
2019-01-18T05:27:57.732Z,99859.27
2019-01-18T05:30:34.430Z,99859.13
2019-01-18T05:33:07.454Z,99864.73
2019-01-18T05:35:40.822Z,99872.69
2019-01-18T05:38:12.714Z,99872.69
2019-01-18T05:40:53.912Z,99864.94
2019-01-18T05:43:29.437Z,99861.53
2019-01-18T05:46:02.160Z,99858.88
2019-01-18T05:48:33.275Z,99867.67
2019-01-18T05:51:16.572Z,99874.30
2019-01-18T05:53:49.910Z,99876.55
2019-01-18T05:56:23.869Z,99877.12
2019-01-18T05:58:55.307Z,99881.96
2019-01-18T06:01:29.614Z,99880.20
2019-01-18T06:04:02.906Z,99895.89
2019-01-18T06:06:35.499Z,99910.59
2019-01-18T06:09:10.568Z,99907.12
2019-01-18T06:11:45.282Z,99910.17
2019-01-18T06:14:18.556Z,99928.20
2019-01-18T06:16:50.565Z,99920.25
2019-01-18T06:19:21.966Z,99920.33
2019-01-18T06:21:52.157Z,99926.11
2019-01-18T06:24:31.821Z,99934.41
2019-01-18T06:27:04.037Z,99932.89
2019-01-18T06:29:36.203Z,99940.14
2019-01-18T06:32:08.084Z,99943.05
2019-01-18T06:34:39.544Z,99949.13
2019-01-18T06:37:11.412Z,99957.61
2019-01-18T06:39:45.422Z,99964.73
2019-01-18T06:42:17.499Z,99983.56
2019-01-18T06:44:49.782Z,99971.88
2019-01-18T06:47:24.807Z,99978.02
2019-01-18T06:49:57.747Z,99984.02
2019-01-18T06:52:39.264Z,99989.88
2019-01-18T06:55:16.011Z,99995.33
2019-01-18T06:57:48.389Z,99993.64
2019-01-18T07:00:29.446Z,99970.28
2019-01-18T07:03:05.984Z,99997.28
2019-01-18T07:05:38.358Z,100004.97
2019-01-18T07:08:09.532Z,100003.28
2019-01-18T07:10:41.192Z,100001.19
2019-01-18T07:13:12.502Z,100000.50
2019-01-18T07:15:43.792Z,100004.27
2019-01-18T07:18:14.862Z,100001.18
2019-01-18T07:20:47.219Z,100008.72
2019-01-18T07:23:19.160Z,100021.44
2019-01-18T07:25:54.910Z,100022.22
2019-01-18T07:28:26.812Z,100028.13
2019-01-18T07:30:59.073Z,100029.52
2019-01-18T07:33:39.488Z,100034.12
2019-01-18T07:36:15.372Z,100033.75
2019-01-18T07:38:46.391Z,100029.58
2019-01-18T07:41:17.494Z,100031.11
2019-01-18T07:43:58.756Z,100029.20
2019-01-18T07:46:39.591Z,100035.36
2019-01-18T07:49:16.913Z,100034.22
2019-01-18T07:51:47.074Z,100033.75
2019-01-18T07:54:31.173Z,100050.44
2019-01-18T07:57:03.317Z,100050.87
2019-01-18T07:59:34.331Z,100054.83
2019-01-18T08:02:04.592Z,100063.45
2019-01-18T08:04:36.910Z,100075.31
2019-01-18T08:07:14.064Z,100081.80
2019-01-18T08:09:47.064Z,100084.63
2019-01-18T08:12:20.199Z,100092.62
2019-01-18T08:14:52.304Z,100091.70
2019-01-18T08:17:27.701Z,100096.05
2019-01-18T08:19:59.909Z,100094.70
2019-01-18T08:22:31.835Z,100095.96
2019-01-18T08:25:02.929Z,100098.70
2019-01-18T08:27:33.171Z,100102.59
2019-01-18T08:30:05.924Z,100110.95
2019-01-18T08:32:36.105Z,100107.19
2019-01-18T08:35:06.654Z,100115.23
2019-01-18T08:37:36.867Z,100122.83
2019-01-18T08:40:11.670Z,100120.95
2019-01-18T08:42:41.753Z,100124.52
2019-01-18T08:45:31.523Z,100119.55
2019-01-18T08:48:08.111Z,100126.34
2019-01-18T08:50:41.508Z,100128.79
2019-01-18T08:53:18.521Z,100120.75
2019-01-18T08:55:52.066Z,100125.23
2019-01-18T08:58:30.306Z,100136.91
2019-01-18T09:01:03.074Z,100133.59
2019-01-18T09:03:36.214Z,100134.14
2019-01-18T09:06:18.915Z,100158.77
2019-01-18T09:08:51.363Z,100149.70
2019-01-18T09:11:21.880Z,100152.48
2019-01-18T09:13:54.592Z,100155.34
2019-01-18T09:16:33.006Z,100164.88
2019-01-18T09:19:04.289Z,100159.05
2019-01-18T09:21:35.475Z,100166.59
2019-01-18T09:24:14.304Z,100166.45
2019-01-18T09:27:02.315Z,100171.47
2019-01-18T09:29:39.272Z,100172.06
2019-01-18T09:35:07.651Z,100174.78
2019-01-18T09:37:38.743Z,100183.03
2019-01-18T09:40:13.061Z,100188.22
2019-01-18T09:42:45.129Z,100202.03
2019-01-18T09:45:18.630Z,100208.27
2019-01-18T09:47:49.766Z,100201.54
2019-01-18T09:50:25.671Z,100204.77
2019-01-18T09:52:57.244Z,100204.39
2019-01-18T09:55:27.452Z,100207.27
2019-01-18T09:57:57.779Z,100209.63
2019-01-18T10:00:34.520Z,100205.67
2019-01-18T10:03:08.851Z,100207.88
2019-01-18T10:05:41.175Z,100213.17
2019-01-18T10:08:19.052Z,100210.69
2019-01-18T10:10:50.172Z,100217.27
2019-01-18T10:13:23.580Z,100213.54
2019-01-18T10:16:08.178Z,100213.25
2019-01-18T10:18:44.410Z,100209.58
2019-01-18T10:21:15.632Z,100212.37
2019-01-18T10:23:53.020Z,100217.14
2019-01-18T10:34:10.386Z,100217.70
2019-01-18T10:36:41.511Z,100216.64
2019-01-18T10:39:13.802Z,100208.92
2019-01-18T10:41:53.825Z,100213.17
2019-01-18T10:44:42.511Z,100211.66
2019-01-18T10:47:23.620Z,100208.61
2019-01-18T10:49:58.498Z,100213.05
2019-01-18T10:56:33.809Z,100222.33
2019-01-18T10:59:11.931Z,100229.12
2019-01-18T11:01:47.738Z,100219.92
2019-01-18T11:04:19.179Z,100225.80
2019-01-18T11:07:01.523Z,100224.98
2019-01-18T11:09:33.816Z,100224.75
2019-01-18T11:12:05.806Z,100225.91
2019-01-18T11:14:44.688Z,100219.94
2019-01-18T11:17:17.248Z,100221.59
2019-01-18T11:19:49.200Z,100222.67
2019-01-18T11:22:24.132Z,100214.53
2019-01-18T11:24:57.489Z,100220.53
2019-01-18T11:27:30.813Z,100225.75
2019-01-18T11:30:09.243Z,100221.50
2019-01-18T11:32:41.159Z,100233.17
2019-01-18T11:35:13.958Z,100229.88
2019-01-18T11:37:49.150Z,100233.55
2019-01-18T11:40:22.851Z,100230.92
2019-01-18T11:42:55.823Z,100228.09
2019-01-18T11:45:33.841Z,100233.78
2019-01-18T11:48:23.142Z,100233.36
2019-01-18T11:51:06.204Z,100230.40
2019-01-18T11:53:41.850Z,100219.45
2019-01-18T11:56:14.044Z,100222.27
2019-01-18T11:58:45.237Z,100219.85
2019-01-18T12:01:20.826Z,100218.05
2019-01-18T12:03:51.959Z,100218.05
2019-01-18T12:06:30.789Z,100218.18
2019-01-18T12:09:05.852Z,100215.56
2019-01-18T12:11:37.282Z,100212.03
2019-01-18T12:14:08.422Z,100204.69
2019-01-18T12:16:39.885Z,100205.92
2019-01-18T12:19:18.527Z,100206.37
2019-01-18T12:21:49.618Z,100199.00
2019-01-18T12:24:27.336Z,100205.17
2019-01-18T12:27:00.158Z,100198.73
2019-01-18T12:29:40.151Z,100198.62
2019-01-18T12:32:12.063Z,100197.32
2019-01-18T12:34:44.577Z,100194.87
2019-01-18T12:37:44.497Z,100202.05
2019-01-18T12:40:19.207Z,100183.64
2019-01-18T12:42:50.721Z,100181.52
2019-01-18T12:45:51.195Z,100186.98
2019-01-18T12:48:26.635Z,100179.80
2019-01-18T12:51:03.518Z,100168.11
2019-01-18T12:53:38.984Z,100183.92
2019-01-18T12:56:10.229Z,100187.50
2019-01-18T12:58:42.157Z,100192.81
2019-01-18T13:01:14.162Z,100185.68
2019-01-18T13:03:49.772Z,100184.84
2019-01-18T13:06:24.804Z,100166.03
2019-01-18T13:09:02.260Z,100183.03
2019-01-18T13:11:40.129Z,100178.80
2019-01-18T13:14:14.419Z,100178.50
2019-01-18T13:16:54.312Z,100180.24
2019-01-18T13:19:33.504Z,100175.41
2019-01-18T13:22:11.618Z,100173.23
2019-01-18T13:24:41.836Z,100171.71
2019-01-18T13:27:19.371Z,100166.19
2019-01-18T13:29:51.290Z,100170.60
2019-01-18T13:32:22.426Z,100166.53
2019-01-18T13:34:54.094Z,100170.33
2019-01-18T13:37:28.089Z,100173.85
2019-01-18T13:39:59.072Z,100170.25
2019-01-18T13:42:40.092Z,100170.99
2019-01-18T13:45:15.584Z,100179.27
2019-01-18T13:47:47.136Z,100171.95
2019-01-18T13:50:19.374Z,100173.78
2019-01-18T13:52:57.061Z,100172.64
2019-01-18T13:55:28.191Z,100175.59
2019-01-18T13:57:59.412Z,100155.41
2019-01-18T14:00:36.344Z,100172.17
2019-01-18T14:03:08.217Z,100174.95
2019-01-18T14:05:39.309Z,100179.80
2019-01-18T14:08:14.755Z,100178.20
2019-01-18T14:10:47.589Z,100180.74
2019-01-18T14:13:22.141Z,100178.20
2019-01-18T14:15:57.160Z,100187.44
2019-01-18T14:18:31.620Z,100183.59
2019-01-18T14:21:03.543Z,100188.36
2019-01-18T14:23:34.669Z,100186.08
2019-01-18T14:26:07.215Z,100192.75
2019-01-18T14:28:38.379Z,100187.42
2019-01-18T14:31:12.802Z,100187.19
2019-01-18T14:33:54.009Z,100192.45
2019-01-18T14:36:28.328Z,100188.47
2019-01-18T14:39:04.973Z,100189.34
2019-01-18T14:41:37.239Z,100189.34
2019-01-18T14:44:10.887Z,100196.55
2019-01-18T14:46:42.010Z,100193.56
2019-01-18T14:49:13.066Z,100197.77
2019-01-18T14:51:43.188Z,100199.95
2019-01-18T14:54:16.694Z,100194.55
2019-01-18T14:56:48.493Z,100202.80
2019-01-18T14:59:19.589Z,100202.80
2019-01-18T15:01:50.665Z,100201.78
2019-01-18T15:04:22.344Z,100201.84
2019-01-18T15:06:54.738Z,100206.61
2019-01-18T15:09:25.976Z,100206.61
2019-01-18T15:11:57.816Z,100213.62
2019-01-18T15:14:32.040Z,100213.62
2019-01-18T15:17:03.534Z,100219.41
2019-01-18T15:19:36.349Z,100215.42
2019-01-18T15:22:11.221Z,100215.83
2019-01-18T15:24:41.177Z,100216.36
2019-01-18T15:27:19.997Z,100213.78
2019-01-18T15:29:58.425Z,100214.55
2019-01-18T15:32:30.165Z,100213.14
2019-01-18T15:35:15.926Z,100203.93
2019-01-18T15:37:41.566Z,100215.47
2019-01-18T15:40:15.110Z,100217.41
2019-01-18T15:42:48.038Z,100194.72
2019-01-18T15:45:25.840Z,100204.62
2019-01-18T15:47:59.363Z,100215.22
2019-01-18T15:50:37.559Z,100215.31
2019-01-18T15:53:13.255Z,100215.31
2019-01-18T15:55:58.521Z,100223.56
2019-01-18T15:58:30.495Z,100221.47
2019-01-18T16:01:05.439Z,100221.83
2019-01-18T16:03:42.822Z,100217.89
2019-01-18T16:06:13.575Z,100211.01
2019-01-18T16:09:04.925Z,100227.14
2019-01-18T16:11:37.175Z,100217.92
2019-01-18T16:14:15.410Z,100201.88
2019-01-18T16:16:55.575Z,100217.92
2019-01-18T16:19:33.410Z,100219.17
2019-01-18T16:22:14.182Z,100218.28
2019-01-18T16:24:56.519Z,100212.12
2019-01-18T16:27:41.037Z,100218.42
2019-01-18T16:30:24.918Z,100219.73
2019-01-18T16:33:10.831Z,100213.86
2019-01-18T16:35:42.994Z,100201.64
2019-01-18T16:38:16.397Z,100212.47
2019-01-18T16:40:51.302Z,100215.00
2019-01-18T16:43:35.252Z,100214.23
2019-01-18T16:46:12.070Z,100194.66
2019-01-18T16:48:47.025Z,100211.36
2019-01-18T16:51:28.445Z,100214.42
2019-01-18T16:54:00.279Z,100209.55
2019-01-18T16:56:46.520Z,100212.60
2019-01-18T16:59:17.426Z,100207.88
2019-01-18T17:01:50.325Z,100211.48
2019-01-18T17:04:28.348Z,100212.40
2019-01-18T17:07:02.911Z,100210.20
2019-01-18T17:09:38.496Z,100215.66
2019-01-18T17:12:18.001Z,100209.22
2019-01-18T17:14:52.587Z,100209.02
2019-01-18T17:17:27.047Z,100202.72
2019-01-18T17:20:04.621Z,100212.31
2019-01-18T17:22:37.403Z,100208.93
2019-01-18T17:25:21.301Z,100212.38
2019-01-18T17:28:03.827Z,100210.79
2019-01-18T17:30:37.325Z,100212.25
2019-01-18T17:33:14.891Z,100207.80
2019-01-18T17:35:52.190Z,100206.58
2019-01-18T17:39:21.758Z,100207.10
2019-01-18T17:42:38.697Z,100206.63
2019-01-18T17:45:54.196Z,100209.58
2019-01-18T17:48:55.542Z,100205.66
2019-01-18T17:52:07.624Z,100209.58
2019-01-18T17:55:07.522Z,100211.91
2019-01-18T17:58:13.785Z,100209.38
2019-01-18T18:01:18.935Z,100214.63
2019-01-18T18:04:25.478Z,100214.63
2019-01-18T18:07:54.622Z,100213.63
2019-01-18T18:10:53.629Z,100208.30
2019-01-18T18:14:14.050Z,100209.84
2019-01-18T18:18:04.903Z,100211.69
2019-01-18T18:21:24.757Z,100208.02
2019-01-18T18:24:39.061Z,100210.33
2019-01-18T18:27:40.489Z,100203.30
2019-01-18T18:30:55.443Z,100207.75
2019-01-18T18:34:08.662Z,100204.56
2019-01-18T18:37:28.483Z,100199.01
2019-01-18T18:40:32.628Z,100204.92
2019-01-18T18:43:30.337Z,100205.18
2019-01-18T18:47:00.713Z,100209.00
2019-01-18T18:50:14.673Z,100207.31
2019-01-18T18:53:29.698Z,100203.23
2019-01-18T18:56:28.927Z,100197.58
2019-01-18T18:59:50.545Z,100197.72
2019-01-18T19:03:01.214Z,100202.68
2019-01-18T19:06:53.966Z,100191.84
2019-01-18T19:10:14.269Z,100207.53
2019-01-18T19:13:32.364Z,100196.95
2019-01-18T19:16:43.429Z,100190.95
2019-01-18T19:20:32.346Z,100194.56
2019-01-18T19:22:59.531Z,100191.18
2019-01-18T19:26:30.546Z,100188.42
2019-01-18T19:30:05.226Z,100187.80
2019-01-18T19:33:23.232Z,100181.11
2019-01-18T19:36:21.259Z,100186.41
2019-01-18T19:39:37.238Z,100189.67
2019-01-18T19:42:43.041Z,100191.88
2019-01-18T19:46:08.390Z,100186.26
2019-01-18T19:49:17.022Z,100179.28
2019-01-18T19:52:06.059Z,100176.27
2019-01-18T19:54:54.271Z,100176.27
2019-01-18T19:58:04.603Z,100182.10
2019-01-18T20:01:00.601Z,100188.86
2019-01-18T20:04:29.830Z,100182.53
2019-01-18T20:08:14.259Z,100184.22
2019-01-18T20:11:15.348Z,100184.39
2019-01-18T20:18:34.498Z,100193.37
2019-01-18T20:21:48.666Z,100193.85
2019-01-18T20:25:16.762Z,100187.45
2019-01-18T20:32:36.345Z,100184.38
2019-01-18T20:36:06.283Z,100162.64
2019-01-18T20:38:41.616Z,100183.69
2019-01-18T20:42:13.034Z,100180.36
2019-01-18T20:45:26.141Z,100182.24
2019-01-18T20:48:29.672Z,100181.06
2019-01-18T20:51:47.656Z,100176.75
2019-01-18T20:55:04.339Z,100183.34
2019-01-18T20:58:03.887Z,100181.29
2019-01-18T21:01:18.682Z,100177.59
2019-01-18T21:04:25.347Z,100175.33
2019-01-18T21:07:19.972Z,100181.67
2019-01-18T21:10:47.586Z,100181.67
2019-01-18T21:14:25.763Z,100179.18
2019-01-18T21:17:03.965Z,100182.67
2019-01-18T21:19:53.007Z,100163.59
2019-01-18T21:23:13.249Z,100183.23
2019-01-18T21:26:46.181Z,100177.39
2019-01-18T21:30:15.261Z,100175.69
2019-01-18T21:33:26.330Z,100181.22
2019-01-18T21:36:43.585Z,100176.06
2019-01-18T21:39:54.197Z,100178.80
2019-01-18T21:42:58.384Z,100177.72
2019-01-18T21:46:05.198Z,100175.32
2019-01-18T21:49:16.130Z,100176.88
2019-01-18T21:52:18.543Z,100175.10
2019-01-18T21:55:20.096Z,100172.60
2019-01-18T21:58:32.212Z,100170.78
2019-01-18T22:01:43.175Z,100167.42
2019-01-18T22:05:12.602Z,100162.37
2019-01-18T22:08:28.337Z,100165.39
2019-01-18T22:11:27.801Z,100150.15
2019-01-18T22:14:57.781Z,100169.95
2019-01-18T22:18:03.678Z,100168.98
2019-01-18T22:21:17.167Z,100166.59
2019-01-18T22:24:18.072Z,100166.59
2019-01-18T22:27:24.538Z,100167.30
2019-01-18T22:30:21.710Z,100177.28
2019-01-18T22:33:36.075Z,100168.75
2019-01-18T22:36:52.482Z,100174.64
2019-01-18T22:39:50.975Z,100184.12
2019-01-18T22:43:03.927Z,100177.38
2019-01-18T22:46:14.223Z,100189.86
2019-01-18T22:49:13.484Z,100176.67
2019-01-18T22:52:14.298Z,100175.12
2019-01-18T22:55:14.919Z,100178.70
2019-01-18T22:58:30.159Z,100172.58
2019-01-18T23:01:40.194Z,100171.50
2019-01-18T23:04:23.956Z,100171.50
2019-01-18T23:07:16.374Z,100170.89
2019-01-18T23:10:26.311Z,100176.88
2019-01-18T23:13:26.923Z,100168.11
2019-01-18T23:16:53.564Z,100163.20
2019-01-18T23:19:53.047Z,100170.78
2019-01-18T23:23:18.571Z,100165.00
2019-01-18T23:26:29.993Z,100167.40
2019-01-18T23:29:14.462Z,100163.20
2019-01-18T23:32:32.954Z,100163.20
2019-01-18T23:35:19.671Z,100164.52
2019-01-18T23:38:17.503Z,100166.69
2019-01-18T23:41:21.113Z,100169.56
2019-01-18T23:44:27.204Z,100165.73
2019-01-18T23:47:28.715Z,100167.53
2019-01-18T23:50:25.407Z,100170.27
2019-01-18T23:53:33.792Z,100146.99
2019-01-18T23:56:47.802Z,100162.11
